createdAt,value
2018-12-15T20:55:02.342Z,102252.83
2018-12-15T20:57:30.932Z,102249.34
2018-12-15T20:59:59.733Z,102148.97
2018-12-15T21:02:28.416Z,102255.45
2018-12-15T21:04:57.364Z,102246.77
2018-12-15T21:07:26.000Z,102237.59
2018-12-15T21:09:54.690Z,102236.80
2018-12-15T21:12:23.484Z,102231.16
2018-12-15T21:14:52.062Z,102229.42
2018-12-15T21:17:21.116Z,102101.14
2018-12-15T21:19:49.683Z,102222.44
2018-12-15T21:22:18.678Z,102228.45
2018-12-15T21:24:47.263Z,102224.98
2018-12-15T21:27:15.954Z,102229.27
2018-12-15T21:29:44.662Z,102221.44
2018-12-15T21:32:13.312Z,102222.25
2018-12-15T21:34:41.941Z,102216.17
2018-12-15T21:37:10.495Z,102210.91
2018-12-15T21:39:39.450Z,102198.77
2018-12-15T21:42:08.002Z,102194.41
2018-12-15T21:44:36.829Z,102192.63
2018-12-15T21:47:05.412Z,102177.89
2018-12-15T21:49:34.130Z,102177.86
2018-12-15T21:52:02.776Z,102172.62
2018-12-15T21:54:31.466Z,102170.81
2018-12-15T21:57:00.314Z,102165.61
2018-12-15T21:59:28.899Z,102164.27
2018-12-15T22:01:57.634Z,102157.73
2018-12-15T22:04:26.166Z,102155.53
2018-12-15T22:06:54.753Z,102155.97
2018-12-15T22:09:23.445Z,102151.64
2018-12-15T22:11:52.020Z,102155.93
2018-12-15T22:14:20.668Z,102037.16
2018-12-15T22:16:49.429Z,102155.42
2018-12-15T22:19:19.095Z,102148.92
2018-12-15T22:21:47.644Z,102145.45
2018-12-15T22:24:16.616Z,102139.40
2018-12-15T22:26:45.150Z,102139.40
2018-12-15T22:29:14.048Z,102135.89
2018-12-15T22:31:42.934Z,102137.63
2018-12-15T22:34:11.627Z,102140.22
2018-12-15T22:36:40.304Z,102132.86
2018-12-15T22:39:08.936Z,102125.45
2018-12-15T22:41:37.878Z,102114.20
2018-12-15T22:46:45.351Z,102104.61
2018-12-15T22:49:14.032Z,102072.67
2018-12-15T22:51:42.568Z,102112.36
2018-12-15T22:54:11.690Z,102100.23
2018-12-15T22:56:40.237Z,102097.63
2018-12-15T22:59:09.189Z,102096.30
2018-12-15T23:01:43.030Z,102096.73
2018-12-15T23:04:11.609Z,102006.59
2018-12-15T23:06:40.191Z,102084.58
2018-12-15T23:09:08.908Z,102015.67
2018-12-15T23:11:37.565Z,102086.23
2018-12-15T23:14:06.523Z,102082.78
2018-12-15T23:16:35.070Z,102076.71
2018-12-15T23:19:03.730Z,102076.69
2018-12-15T23:21:32.474Z,102076.71
2018-12-15T23:24:01.085Z,102072.38
2018-12-15T23:26:29.986Z,102036.19
2018-12-15T23:28:59.146Z,102055.90
2018-12-15T23:31:28.003Z,102061.11
2018-12-15T23:33:56.547Z,102061.09
2018-12-15T23:36:25.437Z,102054.20
2018-12-15T23:38:54.011Z,102058.53
2018-12-15T23:41:22.699Z,102055.97
2018-12-15T23:43:51.290Z,102053.41
2018-12-15T23:46:19.908Z,102050.86
2018-12-15T23:48:48.636Z,102041.33
2018-12-15T23:51:17.239Z,102042.18
2018-12-15T23:53:46.237Z,102032.67
2018-12-15T23:56:14.817Z,102037.89
2018-12-15T23:58:43.516Z,102030.98
